Time;durP1;ratioP1;P1;durP2;ratioP2;P2;SDS_P1;SDS_P2;PMS_P1;PMS_P2;Temp;Humidity;BMP_temperature;BMP_pressure;BME280_temperature;BME280_humidity;BME280_pressure;Samples;Min_cycle;Max_cycle;Signal;HPM_P1;HPM_P2
2023/09/06 00:00:03;;;;;;;10.00;6.60;;;19.70;99.90;;;;;;5013471;28;20939;-44
2023/09/06 00:02:41;;;;;;;10.40;6.80;;;19.40;99.90;;;;;;5009348;28;20445;-44
2023/09/06 00:05:08;;;;;;;8.87;6.93;;;19.60;99.90;;;;;;4993831;28;20429;-43
2023/09/06 00:07:35;;;;;;;9.73;6.60;;;19.60;99.90;;;;;;4993751;28;20453;-42
2023/09/06 00:10:01;;;;;;;7.53;6.70;;;19.60;99.90;;;;;;4994754;28;20430;-43
2023/09/06 00:12:29;;;;;;;8.27;5.60;;;19.60;99.90;;;;;;4994562;28;20439;-44
2023/09/06 00:14:56;;;;;;;13.83;6.43;;;19.50;99.90;;;;;;5014160;28;20444;-44
2023/09/06 00:17:23;;;;;;;7.50;5.97;;;19.40;99.90;;;;;;5014083;28;20446;-44
2023/09/06 00:19:49;;;;;;;11.30;6.83;;;19.60;99.90;;;;;;5013857;28;20430;-42
2023/09/06 00:22:18;;;;;;;8.13;6.00;;;19.50;99.90;;;;;;5013463;28;20449;-44
2023/09/06 00:24:44;;;;;;;9.23;6.17;;;19.60;99.90;;;;;;4994840;28;20460;-43
2023/09/06 00:27:11;;;;;;;9.70;6.47;;;19.60;99.90;;;;;;4994719;28;20446;-44
2023/09/06 00:29:38;;;;;;;6.27;5.67;;;19.60;99.90;;;;;;4993788;28;20504;-45
2023/09/06 00:32:05;;;;;;;6.30;5.53;;;19.50;99.90;;;;;;4993190;28;20416;-45
2023/09/06 00:34:33;;;;;;;9.93;7.33;;;19.50;99.90;;;;;;5007601;28;20439;-44
2023/09/06 00:37:02;;;;;;;8.63;6.53;;;19.50;99.90;;;;;;5011705;28;20425;-42
2023/09/06 00:39:30;;;;;;;8.90;6.17;;;19.40;99.90;;;;;;5010524;28;21047;-43
2023/09/06 00:42:00;;;;;;;10.47;7.50;;;19.40;99.90;;;;;;5012343;28;20519;-44
2023/09/06 00:44:26;;;;;;;10.13;7.17;;;19.40;99.90;;;;;;4998069;28;20553;-43
2023/09/06 00:46:54;;;;;;;6.23;5.60;;;19.20;99.90;;;;;;4993124;28;20413;-45
2023/09/06 00:49:21;;;;;;;6.47;5.87;;;19.30;99.90;;;;;;4992858;28;20484;-44
2023/09/06 00:51:48;;;;;;;8.10;5.80;;;19.30;99.90;;;;;;4992590;28;20931;-44
2023/09/06 00:54:14;;;;;;;7.43;5.90;;;19.20;99.90;;;;;;5004240;28;20803;-43
2023/09/06 00:56:41;;;;;;;6.40;5.80;;;19.20;99.90;;;;;;5012341;28;20434;-44
2023/09/06 00:59:10;;;;;;;7.47;6.00;;;19.10;99.90;;;;;;5011194;28;20472;-44
2023/09/06 01:01:37;;;;;;;6.63;5.23;;;19.10;99.90;;;;;;5011388;28;20449;-45
2023/09/06 01:04:06;;;;;;;6.90;6.30;;;19.10;99.90;;;;;;5002342;28;20485;-45
2023/09/06 01:06:36;;;;;;;6.40;5.80;;;19.10;99.90;;;;;;4991684;28;20884;-45
2023/09/06 01:09:05;;;;;;;8.57;5.40;;;19.00;99.90;;;;;;4991388;28;20493;-44
2023/09/06 01:11:37;;;;;;;8.33;4.80;;;19.00;99.90;;;;;;4991553;28;20458;-44
2023/09/06 01:14:03;;;;;;;6.13;5.57;;;19.00;99.90;;;;;;4999531;28;20857;-45
2023/09/06 01:16:32;;;;;;;6.83;5.50;;;19.00;99.90;;;;;;5012471;28;20433;-44
2023/09/06 01:19:07;;;;;;;5.73;5.13;;;19.00;99.90;;;;;;5012335;28;20449;-43
2023/09/06 01:21:37;;;;;;;8.60;4.93;;;19.00;99.90;;;;;;5012314;28;20431;-44
2023/09/06 01:24:06;;;;;;;4.80;4.37;;;18.90;99.90;;;;;;5004126;28;20463;-45
2023/09/06 01:26:34;;;;;;;7.17;5.73;;;18.90;99.90;;;;;;4992658;28;20489;-43
2023/09/06 01:29:00;;;;;;;5.90;5.40;;;18.90;99.90;;;;;;4992315;28;20492;-44
2023/09/06 01:31:27;;;;;;;5.87;5.23;;;18.90;99.90;;;;;;4992463;28;20449;-44
2023/09/06 01:33:54;;;;;;;6.40;5.80;;;18.90;99.90;;;;;;4996134;28;20453;-45
2023/09/06 01:36:20;;;;;;;9.10;5.57;;;18.70;99.90;;;;;;5012724;28;21067;-44
2023/09/06 01:38:47;;;;;;;7.27;5.70;;;18.80;99.90;;;;;;5012960;28;20474;-43
2023/09/06 01:41:16;;;;;;;6.87;5.63;;;18.80;99.90;;;;;;5014505;28;20452;-44
2023/09/06 01:43:42;;;;;;;6.87;6.17;;;18.80;99.90;;;;;;5010483;28;20476;-44
2023/09/06 01:46:09;;;;;;;7.10;5.83;;;18.80;99.90;;;;;;4995683;28;20440;-43
2023/09/06 01:48:39;;;;;;;7.20;6.60;;;18.70;99.90;;;;;;4995797;28;20493;-45
2023/09/06 01:51:08;;;;;;;6.50;5.87;;;18.70;99.90;;;;;;4998165;28;20476;-45
2023/09/06 01:53:35;;;;;;;7.27;5.70;;;18.70;99.90;;;;;;5000024;28;20434;-44
2023/09/06 01:56:02;;;;;;;6.30;5.70;;;18.70;99.90;;;;;;5018748;28;20439;-43
2023/09/06 01:58:32;;;;;;;6.77;6.07;;;18.80;99.90;;;;;;5014855;28;20522;-44
2023/09/06 02:00:59;;;;;;;7.30;6.60;;;18.60;99.90;;;;;;5014756;28;20507;-43
2023/09/06 02:03:27;;;;;;;6.53;5.93;;;18.60;99.90;;;;;;5014258;28;20449;-43
2023/09/06 02:05:53;;;;;;;10.23;6.40;;;18.60;99.90;;;;;;4996665;28;21025;-43
2023/09/06 02:08:21;;;;;;;8.63;6.30;;;18.60;99.90;;;;;;4995949;28;20435;-44
2023/09/06 02:10:49;;;;;;;5.40;4.80;;;18.60;99.90;;;;;;4994918;28;20913;-44
2023/09/06 02:13:15;;;;;;;6.67;4.70;;;18.60;99.90;;;;;;4995694;28;20548;-44
2023/09/06 02:15:43;;;;;;;14.07;7.43;;;18.60;99.90;;;;;;5011920;28;20455;-44
2023/09/06 02:18:10;;;;;;;10.20;6.67;;;18.40;99.90;;;;;;5014233;28;20469;-43
2023/09/06 02:20:40;;;;;;;6.93;6.20;;;18.50;99.90;;;;;;5014138;28;20917;-42
2023/09/06 02:23:07;;;;;;;8.83;5.73;;;18.50;99.90;;;;;;5013961;28;20830;-44
2023/09/06 02:25:34;;;;;;;6.33;5.73;;;18.50;99.90;;;;;;5000660;28;20534;-43
2023/09/06 02:28:04;;;;;;;6.20;5.60;;;18.50;99.90;;;;;;4995665;28;20554;-44
2023/09/06 02:30:31;;;;;;;8.93;5.80;;;18.50;99.90;;;;;;4995679;28;20496;-44
2023/09/06 02:33:00;;;;;;;8.17;7.30;;;18.50;99.90;;;;;;4994040;28;20441;-44
2023/09/06 02:35:27;;;;;;;7.37;6.67;;;18.50;99.90;;;;;;5007825;28;20465;-43
2023/09/06 02:37:53;;;;;;;7.07;6.37;;;18.50;99.90;;;;;;5014121;28;20468;-44
2023/09/06 02:40:20;;;;;;;6.70;5.97;;;18.40;99.90;;;;;;5015474;28;20431;-43
2023/09/06 02:42:49;;;;;;;8.93;6.40;;;18.40;99.90;;;;;;5015175;28;20872;-43
2023/09/06 02:45:15;;;;;;;7.13;5.90;;;18.30;99.90;;;;;;5007021;28;20951;-43
2023/09/06 02:47:47;;;;;;;10.10;6.83;;;18.40;99.90;;;;;;4999396;28;20422;-42
2023/09/06 02:50:16;;;;;;;8.97;6.60;;;18.30;99.90;;;;;;4997315;28;20575;-42
2023/09/06 02:52:44;;;;;;;7.03;5.77;;;18.50;99.90;;;;;;4996646;28;20459;-43
2023/09/06 02:55:13;;;;;;;7.70;7.00;;;18.30;99.90;;;;;;5006060;28;20471;-44
2023/09/06 02:57:40;;;;;;;10.50;6.53;;;18.30;99.90;;;;;;5016856;28;20434;-44
2023/09/06 03:00:18;;;;;;;7.73;6.93;;;18.30;99.90;;;;;;5016696;28;20427;-43
2023/09/06 03:02:46;;;;;;;6.17;5.57;;;18.20;99.90;;;;;;5015011;28;20493;-44
2023/09/06 03:05:18;;;;;;;8.50;6.57;;;18.20;99.90;;;;;;5007267;28;20954;-45
2023/09/06 03:07:48;;;;;;;6.27;5.67;;;18.20;99.90;;;;;;4996200;28;20461;-44
2023/09/06 03:10:16;;;;;;;7.63;6.63;;;18.20;99.90;;;;;;4995542;28;20484;-43
2023/09/06 03:12:43;;;;;;;9.27;7.40;;;18.10;99.90;;;;;;4996572;28;20447;-44
2023/09/06 03:15:11;;;;;;;7.60;6.77;;;18.10;99.90;;;;;;5001454;28;20485;-42
2023/09/06 03:17:37;;;;;;;6.73;6.13;;;18.10;99.90;;;;;;5014851;28;20525;-44
2023/09/06 03:20:33;;;;;;;7.70;6.90;;;18.10;99.90;;;;;;5014697;28;20460;-44
2023/09/06 03:22:58;;;;;;;10.93;7.03;;;18.10;99.90;;;;;;5016296;28;20474;-43
2023/09/06 03:25:26;;;;;;;9.80;6.83;;;18.00;99.90;;;;;;5007955;28;20452;-43
2023/09/06 03:27:59;;;;;;;10.90;7.80;;;18.00;99.90;;;;;;5018415;23;20454;-47
2023/09/06 03:30:30;;;;;;;8.57;7.20;;;18.00;99.90;;;;;;5011572;28;20524;-48
2023/09/06 03:32:57;;;;;;;9.27;7.70;;;17.90;99.90;;;;;;5012246;28;20542;-47
2023/09/06 03:35:24;;;;;;;10.70;6.90;;;17.80;99.90;;;;;;5005918;28;20954;-48
2023/09/06 03:37:51;;;;;;;10.00;8.10;;;17.90;99.90;;;;;;4992913;28;20467;-49
2023/09/06 03:40:25;;;;;;;11.00;7.87;;;17.90;99.90;;;;;;5006843;28;20945;-49
2023/09/06 03:42:55;;;;;;;9.97;7.60;;;17.90;99.90;;;;;;5012240;28;20505;-48
2023/09/06 03:45:24;;;;;;;8.47;7.20;;;17.80;99.90;;;;;;5007723;28;20785;-48
2023/09/06 03:47:52;;;;;;;10.50;7.50;;;17.70;99.90;;;;;;4992712;28;20451;-48
2023/09/06 03:50:21;;;;;;;11.13;7.37;;;17.70;99.90;;;;;;4993810;28;20520;-48
2023/09/06 03:52:47;;;;;;;8.87;7.93;;;18.20;99.90;;;;;;4993627;28;20430;-48
2023/09/06 03:55:16;;;;;;;8.20;7.40;;;17.70;99.90;;;;;;4994408;28;20852;-48
2023/09/06 03:57:44;;;;;;;8.57;7.77;;;17.70;99.90;;;;;;5011875;28;20534;-47
2023/09/06 04:00:25;;;;;;;13.13;8.90;;;17.60;99.90;;;;;;5011803;28;20424;-48
2023/09/06 04:03:03;;;;;;;9.30;7.60;;;17.60;99.90;;;;;;5011697;28;20444;-48
2023/09/06 04:05:32;;;;;;;8.47;7.57;;;17.60;99.90;;;;;;4993316;28;20469;-48
2023/09/06 04:08:04;;;;;;;10.33;8.10;;;17.60;99.90;;;;;;4992641;28;21021;-48
2023/09/06 04:10:36;;;;;;;9.27;8.30;;;17.50;99.90;;;;;;4992027;28;20523;-48
2023/09/06 04:13:05;;;;;;;11.13;9.17;;;17.60;99.90;;;;;;4996617;28;20942;-47
2023/09/06 04:15:34;;;;;;;9.53;8.60;;;17.40;99.90;;;;;;5011797;28;20431;-47
2023/09/06 04:18:02;;;;;;;12.30;8.73;;;17.40;99.90;;;;;;5011229;28;20463;-47
2023/09/06 04:20:31;;;;;;;8.13;7.10;;;17.40;99.90;;;;;;5004990;28;20487;-47
2023/09/06 04:23:00;;;;;;;9.60;8.10;;;17.40;99.90;;;;;;4993696;28;20847;-47
2023/09/06 04:25:28;;;;;;;10.00;8.93;;;17.40;99.90;;;;;;4994826;28;20433;-48
2023/09/06 04:27:56;;;;;;;8.77;7.73;;;17.40;99.90;;;;;;5001673;28;20482;-48
2023/09/06 04:30:28;;;;;;;12.80;8.80;;;17.40;99.90;;;;;;4991797;28;20484;-48
2023/09/06 04:32:57;;;;;;;11.13;9.30;;;17.40;99.90;;;;;;4993680;28;20802;-48
2023/09/06 04:35:26;;;;;;;12.77;9.10;;;17.40;99.90;;;;;;5005986;28;20485;-48
2023/09/06 04:37:53;;;;;;;13.40;8.63;;;17.40;99.90;;;;;;5004440;28;20449;-47
2023/09/06 04:40:20;;;;;;;11.53;8.30;;;17.30;99.90;;;;;;5011444;28;21031;-49
2023/09/06 04:42:47;;;;;;;9.90;8.93;;;17.30;99.90;;;;;;5001482;28;20446;-47
2023/09/06 04:45:14;;;;;;;9.70;7.30;;;17.30;99.90;;;;;;4991541;28;20529;-47
2023/09/06 04:47:43;;;;;;;12.43;8.50;;;17.40;99.90;;;;;;5000439;28;20433;-48
2023/09/06 04:50:12;;;;;;;13.80;9.10;;;17.40;99.90;;;;;;5002840;28;20458;-48
2023/09/06 04:52:44;;;;;;;10.50;8.90;;;17.40;99.90;;;;;;4990973;28;20442;-47
2023/09/06 04:55:12;;;;;;;9.40;8.27;;;17.40;99.90;;;;;;4997168;28;20543;-47
2023/09/06 04:57:39;;;;;;;16.53;8.73;;;17.40;99.90;;;;;;4995224;28;20480;-47
2023/09/06 05:00:16;;;;;;;11.40;9.20;;;17.40;99.90;;;;;;4992156;28;20427;-47
2023/09/06 05:02:46;;;;;;;16.20;9.47;;;17.40;99.90;;;;;;5009236;28;20456;-47
2023/09/06 05:05:14;;;;;;;16.03;10.37;;;17.40;99.90;;;;;;4998944;28;20430;-48
2023/09/06 05:07:41;;;;;;;11.20;8.30;;;17.40;99.90;;;;;;5003288;28;20550;-48
2023/09/06 05:10:10;;;;;;;12.33;8.20;;;17.50;99.90;;;;;;5008842;28;20504;-48
2023/09/06 05:12:37;;;;;;;12.33;8.67;;;17.50;99.90;;;;;;4997016;28;20733;-48
2023/09/06 05:15:05;;;;;;;12.20;9.73;;;17.40;99.90;;;;;;5008870;28;20440;-48
2023/09/06 05:17:33;;;;;;;10.53;9.10;;;17.60;99.90;;;;;;4993225;28;20454;-48
2023/09/06 05:20:27;;;;;;;13.70;10.40;;;17.60;99.90;;;;;;4991407;28;20464;-49
2023/09/06 05:22:56;;;;;;;12.53;10.17;;;17.70;99.90;;;;;;5008313;28;20430;-48
2023/09/06 05:25:23;;;;;;;15.47;10.47;;;17.70;99.90;;;;;;5006108;28;20478;-48
2023/09/06 05:27:50;;;;;;;12.00;9.10;;;17.70;99.90;;;;;;5009137;28;20843;-48
2023/09/06 05:30:17;;;;;;;12.67;9.17;;;17.80;99.90;;;;;;5007152;28;20562;-49
2023/09/06 05:32:44;;;;;;;13.10;8.30;;;17.80;99.90;;;;;;5001093;28;20525;-48
2023/09/06 05:35:11;;;;;;;13.63;8.30;;;17.90;99.90;;;;;;5010327;28;20438;-49
2023/09/06 05:37:40;;;;;;;12.83;10.93;;;18.00;99.90;;;;;;5001118;28;20567;-49
2023/09/06 05:40:08;;;;;;;17.53;9.10;;;18.10;99.90;;;;;;5012681;28;20452;-50
2023/09/06 05:42:35;;;;;;;10.10;8.63;;;18.20;99.90;;;;;;5000248;28;20509;-47
2023/09/06 05:45:03;;;;;;;10.97;9.17;;;18.40;99.90;;;;;;5016137;28;20450;-49
2023/09/06 05:47:30;;;;;;;9.77;8.77;;;18.40;99.90;;;;;;5004767;28;20473;-48
2023/09/06 05:49:57;;;;;;;10.70;9.07;;;18.60;99.90;;;;;;5002005;28;20516;-49
2023/09/06 05:52:24;;;;;;;9.60;8.00;;;18.60;99.90;;;;;;5011257;28;20562;-49
2023/09/06 05:54:52;;;;;;;15.87;8.80;;;18.80;99.90;;;;;;5002072;28;20455;-52
2023/09/06 05:57:19;;;;;;;10.33;8.40;;;18.90;99.90;;;;;;5012014;28;20484;-49
2023/09/06 05:59:47;;;;;;;12.63;9.10;;;18.90;99.90;;;;;;4994534;28;20561;-48
2023/09/06 06:02:15;;;;;;;12.77;10.20;;;19.00;99.90;;;;;;5007009;28;20444;-52
2023/09/06 06:04:45;;;;;;;13.03;8.37;;;19.10;99.90;;;;;;4997490;28;20526;-47
2023/09/06 06:07:12;;;;;;;11.60;7.50;;;19.00;99.90;;;;;;5007742;28;20498;-48
2023/09/06 06:09:39;;;;;;;8.70;7.90;;;19.30;99.90;;;;;;5005301;28;20481;-48
2023/09/06 06:12:07;;;;;;;10.47;8.60;;;19.40;99.90;;;;;;4998260;28;20449;-48
2023/09/06 06:14:36;;;;;;;13.60;7.97;;;19.40;99.90;;;;;;5003849;28;20532;-49
2023/09/06 06:17:03;;;;;;;11.13;8.80;;;19.50;99.90;;;;;;5011277;28;20508;-48
2023/09/06 06:19:30;;;;;;;10.30;8.17;;;19.50;99.90;;;;;;5000181;28;20482;-48
2023/09/06 06:21:57;;;;;;;11.40;7.83;;;19.60;99.90;;;;;;5000492;28;20457;-48
2023/09/06 06:24:23;;;;;;;11.60;8.57;;;19.70;99.90;;;;;;5006291;28;20425;-48
2023/09/06 06:26:51;;;;;;;9.70;8.80;;;19.70;99.90;;;;;;4995694;28;20444;-49
2023/09/06 06:29:19;;;;;;;9.53;8.50;;;19.80;99.90;;;;;;4994694;28;20604;-48
2023/09/06 06:31:46;;;;;;;10.73;8.23;;;19.90;99.90;;;;;;4993508;28;20477;-50
2023/09/06 06:34:14;;;;;;;19.80;8.63;;;19.90;99.90;;;;;;4993986;28;20447;-48
2023/09/06 06:36:40;;;;;;;9.80;8.20;;;19.90;99.90;;;;;;4993111;28;20454;-49
2023/09/06 06:39:10;;;;;;;11.10;8.10;;;20.00;99.90;;;;;;4994285;28;20796;-48
2023/09/06 06:41:36;;;;;;;8.90;8.00;;;20.00;99.90;;;;;;4994301;28;20486;-50
2023/09/06 06:44:03;;;;;;;8.97;8.07;;;20.10;99.90;;;;;;4993074;28;20443;-49
2023/09/06 06:46:33;;;;;;;12.37;9.40;;;20.10;99.90;;;;;;4993160;28;20450;-48
2023/09/06 06:49:02;;;;;;;15.87;8.57;;;20.20;99.90;;;;;;4994618;28;20515;-49
2023/09/06 06:51:31;;;;;;;18.97;10.20;;;20.10;99.90;;;;;;4999082;28;20556;-47
2023/09/06 06:53:58;;;;;;;12.30;9.70;;;20.20;99.90;;;;;;5012878;28;20415;-47
2023/09/06 06:56:25;;;;;;;10.53;8.40;;;20.30;99.90;;;;;;5002283;28;20454;-48
2023/09/06 06:58:52;;;;;;;9.27;8.43;;;20.30;99.90;;;;;;5011265;28;20526;-47
2023/09/06 07:01:20;;;;;;;10.00;8.90;;;20.30;99.90;;;;;;5003807;28;20466;-48
2023/09/06 07:03:48;;;;;;;9.80;8.90;;;20.40;99.90;;;;;;5011862;28;20454;-47
2023/09/06 07:06:14;;;;;;;10.83;8.87;;;20.40;99.90;;;;;;4999065;28;20456;-47
2023/09/06 07:08:41;;;;;;;11.20;9.07;;;20.40;99.90;;;;;;5004907;28;20470;-48
2023/09/06 07:11:08;;;;;;;9.30;8.37;;;20.50;99.90;;;;;;5011630;28;20475;-48
2023/09/06 07:13:35;;;;;;;10.47;7.50;;;20.50;99.90;;;;;;5003980;28;20474;-47
2023/09/06 07:16:03;;;;;;;11.17;9.10;;;20.50;99.90;;;;;;5013108;28;20446;-48
2023/09/06 07:18:29;;;;;;;14.60;9.10;;;20.80;99.90;;;;;;4994618;28;20479;-48
2023/09/06 07:20:57;;;;;;;9.70;8.10;;;20.60;99.90;;;;;;4996225;28;20456;-48
2023/09/06 07:23:24;;;;;;;12.47;8.57;;;20.60;99.90;;;;;;4993470;28;20435;-48
2023/09/06 07:25:50;;;;;;;12.37;8.97;;;20.70;99.90;;;;;;4992004;28;20460;-49
2023/09/06 07:28:17;;;;;;;9.77;8.63;;;20.70;99.90;;;;;;4993246;28;20475;-48
2023/09/06 07:30:44;;;;;;;9.50;8.60;;;20.70;99.90;;;;;;4993398;28;20480;-48
2023/09/06 07:33:11;;;;;;;10.40;8.70;;;20.80;99.90;;;;;;4996678;28;20452;-48
2023/09/06 07:35:37;;;;;;;11.57;8.97;;;21.00;99.90;;;;;;5004007;28;20460;-48
2023/09/06 07:38:05;;;;;;;10.27;9.13;;;20.90;99.90;;;;;;5006435;28;20468;-47
2023/09/06 07:40:32;;;;;;;10.17;9.17;;;20.90;99.90;;;;;;5007191;28;20472;-47
2023/09/06 07:42:59;;;;;;;11.90;8.33;;;20.90;99.90;;;;;;5007995;28;20456;-47
2023/09/06 07:45:25;;;;;;;9.13;8.20;;;20.90;99.90;;;;;;5010436;28;20529;-48
2023/09/06 07:47:52;;;;;;;11.87;8.93;;;20.90;99.90;;;;;;5007185;28;20535;-47
2023/09/06 07:50:19;;;;;;;12.70;8.60;;;21.00;99.90;;;;;;5012741;28;20483;-48
2023/09/06 07:52:46;;;;;;;8.63;7.77;;;21.00;99.90;;;;;;5003962;28;20456;-49
2023/09/06 07:55:14;;;;;;;10.33;9.13;;;21.10;99.90;;;;;;4992836;28;20924;-48
2023/09/06 07:57:40;;;;;;;11.60;8.90;;;21.10;99.90;;;;;;5000245;28;20524;-49
2023/09/06 08:00:08;;;;;;;14.57;9.23;;;21.10;99.90;;;;;;4993648;28;20441;-48
2023/09/06 08:02:39;;;;;;;11.20;9.87;;;21.20;99.90;;;;;;4992825;28;20417;-48
2023/09/06 08:05:06;;;;;;;12.70;9.83;;;21.20;99.90;;;;;;4993279;28;20449;-48
2023/09/06 08:07:33;;;;;;;11.67;9.40;;;21.20;99.90;;;;;;4992772;28;20440;-48
2023/09/06 08:10:01;;;;;;;14.47;9.73;;;21.30;99.90;;;;;;4991482;28;20449;-49
2023/09/06 08:12:29;;;;;;;11.17;8.70;;;21.20;99.90;;;;;;4992531;28;20483;-48
2023/09/06 08:14:55;;;;;;;13.70;9.70;;;21.40;99.90;;;;;;4993433;28;20452;-48
2023/09/06 08:17:22;;;;;;;12.23;8.07;;;21.40;99.90;;;;;;4992588;28;20484;-47
2023/09/06 08:19:48;;;;;;;11.00;8.90;;;21.40;99.90;;;;;;4992831;28;20462;-47
2023/09/06 08:22:15;;;;;;;10.20;8.10;;;21.40;99.90;;;;;;4992862;28;20434;-47
2023/09/06 08:24:41;;;;;;;10.90;7.43;;;21.70;99.90;;;;;;4993061;28;20438;-48
2023/09/06 08:27:08;;;;;;;14.00;7.93;;;21.50;99.90;;;;;;4992849;28;20436;-48
2023/09/06 08:29:37;;;;;;;12.33;8.47;;;21.60;99.90;;;;;;4992469;28;20508;-48
2023/09/06 08:32:04;;;;;;;8.50;6.80;;;21.70;99.90;;;;;;4992517;28;20535;-48
2023/09/06 08:34:30;;;;;;;12.13;7.10;;;21.70;99.90;;;;;;4993195;28;20800;-47
2023/09/06 08:36:57;;;;;;;7.77;6.80;;;21.70;99.80;;;;;;4992328;28;20408;-48
2023/09/06 08:39:24;;;;;;;7.90;6.30;;;21.80;99.60;;;;;;4992387;28;20454;-48
2023/09/06 08:41:52;;;;;;;7.47;6.70;;;21.80;99.50;;;;;;4992345;28;20437;-48
2023/09/06 08:44:20;;;;;;;7.63;6.93;;;21.90;99.40;;;;;;4992428;28;20530;-48
2023/09/06 08:46:53;;;;;;;8.57;6.40;;;21.90;99.30;;;;;;4991028;28;20897;-49
2023/09/06 08:49:22;;;;;;;9.30;6.70;;;22.00;99.20;;;;;;4992441;28;20828;-49
2023/09/06 08:51:49;;;;;;;8.00;5.87;;;22.00;99.10;;;;;;4992583;28;20561;-48
2023/09/06 08:54:17;;;;;;;8.90;6.47;;;22.10;98.90;;;;;;4992742;28;20907;-49
2023/09/06 08:56:45;;;;;;;7.40;6.67;;;22.10;98.70;;;;;;4992623;28;20522;-48
2023/09/06 08:59:12;;;;;;;6.93;6.20;;;22.20;98.60;;;;;;4991590;28;20450;-48
2023/09/06 09:01:38;;;;;;;7.50;5.37;;;22.20;98.20;;;;;;4992657;28;20545;-48
2023/09/06 09:04:07;;;;;;;6.87;6.17;;;22.20;98.00;;;;;;4991891;28;20442;-48
2023/09/06 09:06:33;;;;;;;7.93;7.17;;;22.30;97.80;;;;;;4991217;28;20446;-48
2023/09/06 09:09:14;;;;;;;11.03;6.67;;;22.30;97.70;;;;;;4992171;28;20482;-50
2023/09/06 09:11:44;;;;;;;7.30;6.40;;;22.40;97.60;;;;;;4992259;28;20478;-48
2023/09/06 09:14:19;;;;;;;8.13;7.20;;;22.50;97.70;;;;;;4992076;28;20434;-48
2023/09/06 09:16:45;;;;;;;10.13;6.03;;;22.50;97.60;;;;;;4991657;28;20439;-47
2023/09/06 09:19:13;;;;;;;8.23;6.00;;;22.60;97.60;;;;;;4992035;28;20467;-48
2023/09/06 09:21:41;;;;;;;7.30;6.60;;;22.60;97.40;;;;;;4992315;28;20435;-49
2023/09/06 09:24:08;;;;;;;8.43;5.23;;;22.70;97.20;;;;;;4993571;28;20580;-48
2023/09/06 09:26:35;;;;;;;11.57;6.67;;;22.80;96.80;;;;;;4992559;28;20467;-48
2023/09/06 09:29:03;;;;;;;7.33;5.97;;;22.80;97.10;;;;;;4992482;28;20578;-48
2023/09/06 09:31:31;;;;;;;7.53;5.83;;;22.80;96.40;;;;;;4993399;28;20569;-48
2023/09/06 09:33:57;;;;;;;7.53;5.53;;;22.90;96.10;;;;;;4991879;28;20435;-48
2023/09/06 09:36:28;;;;;;;9.13;5.90;;;23.00;96.30;;;;;;4992433;28;20440;-48
2023/09/06 09:38:55;;;;;;;8.23;6.13;;;23.00;96.10;;;;;;4992674;28;20959;-48
2023/09/06 09:41:21;;;;;;;6.40;5.80;;;23.10;96.00;;;;;;4992395;28;21203;-48
2023/09/06 09:43:48;;;;;;;8.23;5.60;;;23.10;95.90;;;;;;4991915;28;20447;-48
2023/09/06 09:46:27;;;;;;;7.70;6.63;;;23.10;95.80;;;;;;4992551;28;20452;-47
2023/09/06 09:48:55;;;;;;;6.50;5.43;;;23.20;95.50;;;;;;4992376;28;20453;-47
2023/09/06 09:51:22;;;;;;;6.07;5.47;;;23.30;95.70;;;;;;4992426;28;20446;-47
2023/09/06 09:53:50;;;;;;;8.73;6.20;;;23.20;95.80;;;;;;4991563;28;20438;-48
2023/09/06 09:56:18;;;;;;;5.70;5.20;;;23.30;95.80;;;;;;4992246;28;20447;-47
2023/09/06 09:58:46;;;;;;;7.53;6.17;;;23.50;95.70;;;;;;4991961;28;20559;-47
2023/09/06 10:01:13;;;;;;;7.80;5.90;;;23.50;95.70;;;;;;4992172;28;20436;-48
2023/09/06 10:03:42;;;;;;;8.27;7.17;;;23.50;95.50;;;;;;4991919;28;20851;-49
2023/09/06 10:06:10;;;;;;;7.50;5.50;;;23.50;95.30;;;;;;4991998;28;20798;-47
2023/09/06 10:08:39;;;;;;;6.77;5.13;;;23.60;95.20;;;;;;4991975;28;20801;-48
2023/09/06 10:11:08;;;;;;;9.30;6.23;;;23.60;95.10;;;;;;4993825;28;20483;-47
2023/09/06 10:13:37;;;;;;;11.23;6.70;;;23.60;94.90;;;;;;4994120;28;20536;-48
2023/09/06 10:16:05;;;;;;;10.20;6.80;;;23.70;94.50;;;;;;4995678;28;20444;-47
2023/09/06 10:18:32;;;;;;;10.07;5.97;;;23.70;94.50;;;;;;4995175;28;20458;-48
2023/09/06 10:20:59;;;;;;;11.50;5.47;;;23.80;94.10;;;;;;4995324;28;20521;-48
2023/09/06 10:23:30;;;;;;;7.60;6.07;;;23.80;93.90;;;;;;4994787;28;20481;-48
2023/09/06 10:26:00;;;;;;;6.20;5.37;;;23.90;93.90;;;;;;4997327;28;20436;-48
2023/09/06 10:28:32;;;;;;;9.53;5.87;;;23.90;93.50;;;;;;4995493;28;20475;-48
2023/09/06 10:31:07;;;;;;;7.17;5.73;;;23.90;93.50;;;;;;4995244;28;20440;-48
2023/09/06 10:33:56;;;;;;;10.70;6.13;;;23.90;93.50;;;;;;4995462;28;20432;-48
2023/09/06 10:36:27;;;;;;;5.97;5.37;;;23.90;93.70;;;;;;4995381;28;20446;-49
2023/09/06 10:39:14;;;;;;;6.40;5.33;;;23.90;93.80;;;;;;4995120;28;20991;-48
2023/09/06 10:42:24;;;;;;;7.47;6.33;;;24.00;93.80;;;;;;4995170;28;20432;-47
2023/09/06 10:45:15;;;;;;;7.17;6.47;;;23.90;93.80;;;;;;4995089;28;20830;-47
2023/09/06 10:47:42;;;;;;;6.57;5.30;;;24.00;94.00;;;;;;4995099;28;20971;-48
2023/09/06 10:50:15;;;;;;;7.03;6.33;;;24.10;94.00;;;;;;4994317;28;20941;-47
2023/09/06 10:52:44;;;;;;;7.10;6.23;;;24.00;93.90;;;;;;4994493;28;20473;-47
2023/09/06 10:55:16;;;;;;;6.80;5.60;;;24.00;93.90;;;;;;4994695;28;20860;-48
2023/09/06 10:58:06;;;;;;;8.53;5.43;;;24.10;93.90;;;;;;4994818;28;20437;-49
2023/09/06 11:00:35;;;;;;;10.83;5.93;;;24.10;93.40;;;;;;4992133;28;20956;-47
2023/09/06 11:03:18;;;;;;;6.93;5.00;;;24.10;93.20;;;;;;4993148;28;20467;-48
2023/09/06 11:05:56;;;;;;;6.97;5.63;;;24.20;92.10;;;;;;4994573;28;20744;-48
2023/09/06 11:08:26;;;;;;;7.80;5.90;;;24.20;91.40;;;;;;4994148;28;20513;-49
2023/09/06 11:10:53;;;;;;;6.70;6.00;;;24.20;91.20;;;;;;4994365;28;20773;-47
2023/09/06 11:13:22;;;;;;;7.20;6.27;;;24.10;91.60;;;;;;4994029;28;20505;-49
2023/09/06 11:15:51;;;;;;;6.50;5.90;;;24.30;92.10;;;;;;4994472;28;20522;-48
2023/09/06 11:18:18;;;;;;;5.87;5.27;;;24.40;92.10;;;;;;4994561;28;20523;-49
2023/09/06 11:20:48;;;;;;;6.00;5.40;;;24.40;91.80;;;;;;4994185;28;20843;-49
2023/09/06 11:23:16;;;;;;;8.30;6.40;;;24.40;91.60;;;;;;4992910;28;20950;-48
2023/09/06 11:25:43;;;;;;;9.40;6.43;;;24.50;91.50;;;;;;4994326;28;20928;-48
2023/09/06 11:28:20;;;;;;;6.23;5.17;;;24.60;90.70;;;;;;4994655;28;20480;-48
2023/09/06 11:30:47;;;;;;;5.80;4.97;;;24.50;90.30;;;;;;4994865;28;20433;-48
2023/09/06 11:33:17;;;;;;;6.43;5.30;;;24.50;90.30;;;;;;4993913;28;20481;-49
2023/09/06 11:35:51;;;;;;;7.07;5.63;;;24.50;90.30;;;;;;4994598;28;20475;-50
2023/09/06 11:38:24;;;;;;;5.33;4.83;;;24.60;90.50;;;;;;4994611;28;20473;-48
2023/09/06 11:40:51;;;;;;;12.53;6.17;;;24.60;89.70;;;;;;4994312;28;20462;-48
2023/09/06 11:43:23;;;;;;;5.33;4.83;;;24.70;90.00;;;;;;4993762;28;20956;-48
2023/09/06 11:45:53;;;;;;;6.43;5.70;;;24.70;90.00;;;;;;4994573;28;20435;-48
2023/09/06 11:48:27;;;;;;;5.27;4.77;;;24.70;90.00;;;;;;4993940;28;20500;-47
2023/09/06 11:51:03;;;;;;;6.10;4.73;;;24.70;89.40;;;;;;4994716;28;20487;-47
2023/09/06 11:53:31;;;;;;;5.50;4.70;;;24.70;88.40;;;;;;4994015;28;20991;-48
2023/09/06 11:55:59;;;;;;;8.57;5.83;;;24.80;87.90;;;;;;4994251;28;20433;-49
2023/09/06 11:58:27;;;;;;;6.33;5.27;;;24.70;87.50;;;;;;4994037;28;20524;-47
2023/09/06 12:00:56;;;;;;;6.43;5.07;;;24.90;87.90;;;;;;4993928;28;20435;-48
2023/09/06 12:03:29;;;;;;;6.03;4.23;;;24.90;88.30;;;;;;4993723;28;20437;-48
2023/09/06 12:06:00;;;;;;;8.80;4.50;;;24.90;88.60;;;;;;4993033;28;20485;-47
2023/09/06 12:08:29;;;;;;;7.43;4.23;;;24.90;87.70;;;;;;4994202;28;20492;-48
2023/09/06 12:11:05;;;;;;;5.23;4.73;;;25.00;85.10;;;;;;4994287;28;20902;-47
2023/09/06 12:13:34;;;;;;;5.40;4.90;;;25.00;85.80;;;;;;4993739;28;20972;-49
2023/09/06 12:16:04;;;;;;;6.40;5.10;;;25.00;86.60;;;;;;4994051;28;20498;-48
2023/09/06 12:18:32;;;;;;;7.63;5.13;;;25.10;87.50;;;;;;4993869;28;20616;-48
2023/09/06 12:20:59;;;;;;;13.17;4.67;;;25.20;88.50;;;;;;4993326;28;20879;-49
2023/09/06 12:23:28;;;;;;;5.47;4.50;;;25.10;87.80;;;;;;4993021;28;20528;-49
2023/09/06 12:25:55;;;;;;;5.50;3.80;;;25.20;86.20;;;;;;4993212;28;20442;-47
2023/09/06 12:28:22;;;;;;;5.13;3.90;;;25.20;84.50;;;;;;4993520;28;20450;-48
2023/09/06 12:30:53;;;;;;;4.40;3.90;;;25.20;83.30;;;;;;4993016;28;20469;-48
2023/09/06 12:33:21;;;;;;;10.30;4.90;;;25.30;82.70;;;;;;4992925;28;20477;-46
2023/09/06 12:35:58;;;;;;;8.97;5.00;;;25.30;82.90;;;;;;4993787;28;20441;-48
2023/09/06 12:38:24;;;;;;;6.53;4.60;;;25.40;82.90;;;;;;4993376;28;20552;-48
2023/09/06 12:40:51;;;;;;;5.80;4.57;;;25.40;83.00;;;;;;4992934;28;20529;-49
2023/09/06 12:43:18;;;;;;;8.50;5.60;;;25.50;83.00;;;;;;4992781;28;20449;-49
2023/09/06 12:45:47;;;;;;;6.90;4.77;;;25.50;83.10;;;;;;4993336;28;20860;-47
2023/09/06 12:48:14;;;;;;;7.87;4.30;;;25.50;82.90;;;;;;4992313;28;20500;-48
2023/09/06 12:50:41;;;;;;;5.37;4.10;;;25.50;82.70;;;;;;4991014;28;20456;-47